createdAt,value
2019-03-30T00:00:01.253Z,81.70
2019-03-30T00:01:07.661Z,81.70
2019-03-30T00:02:20.014Z,81.50
2019-03-30T00:03:27.361Z,81.50
2019-03-30T00:04:56.785Z,81.50
2019-03-30T00:05:56.328Z,81.60
2019-03-30T00:07:08.083Z,81.60
2019-03-30T00:08:17.551Z,81.60
2019-03-30T00:09:26.251Z,81.60
2019-03-30T00:10:37.680Z,81.60
2019-03-30T00:11:41.420Z,81.60
2019-03-30T00:12:46.087Z,81.70
2019-03-30T00:13:50.356Z,81.80
2019-03-30T00:15:03.463Z,81.90
2019-03-30T00:16:10.940Z,82.00
2019-03-30T00:17:20.812Z,82.10
2019-03-30T00:18:43.245Z,82.00
2019-03-30T00:19:47.643Z,82.10
2019-03-30T00:20:53.400Z,83.10
2019-03-30T00:21:57.710Z,82.50
2019-03-30T00:23:06.310Z,82.30
2019-03-30T00:24:13.312Z,82.30
2019-03-30T00:25:17.643Z,82.30
2019-03-30T00:26:22.366Z,82.40
2019-03-30T00:27:29.233Z,82.50
2019-03-30T00:28:33.560Z,82.50
2019-03-30T00:29:39.292Z,82.50
2019-03-30T00:30:45.233Z,82.50
2019-03-30T00:31:52.219Z,83.30
2019-03-30T00:32:58.827Z,82.50
2019-03-30T00:34:05.766Z,82.60
2019-03-30T00:35:11.310Z,82.60
2019-03-30T00:36:21.435Z,82.50
2019-03-30T00:37:53.066Z,82.60
2019-03-30T00:39:05.527Z,82.70
2019-03-30T00:40:03.871Z,82.70
2019-03-30T00:41:10.659Z,82.70
2019-03-30T00:42:17.681Z,82.70
2019-03-30T00:43:26.186Z,82.70
2019-03-30T00:44:42.079Z,82.70
2019-03-30T00:47:19.446Z,83.00
2019-03-30T00:48:23.582Z,82.70
2019-03-30T00:49:30.254Z,82.70
2019-03-30T00:50:39.980Z,82.70
2019-03-30T00:51:45.075Z,82.70
2019-03-30T00:52:50.645Z,82.60
2019-03-30T00:53:56.549Z,82.70
2019-03-30T00:55:03.874Z,82.70
2019-03-30T00:56:09.794Z,82.60
2019-03-30T00:57:15.487Z,82.60
2019-03-30T00:58:22.109Z,82.50
2019-03-30T00:59:29.145Z,82.50
2019-03-30T01:00:36.450Z,82.50
2019-03-30T01:01:46.052Z,82.50
2019-03-30T01:02:49.586Z,82.40
2019-03-30T01:03:55.096Z,82.30
2019-03-30T01:05:02.523Z,82.20
2019-03-30T01:06:15.366Z,82.10
2019-03-30T01:07:16.338Z,82.00
2019-03-30T01:08:21.755Z,81.90
2019-03-30T01:09:29.548Z,81.80
2019-03-30T01:10:35.274Z,81.80
2019-03-30T01:11:39.883Z,81.60
2019-03-30T01:12:48.914Z,81.60
2019-03-30T01:13:49.953Z,81.70
2019-03-30T01:14:54.120Z,81.60
2019-03-30T01:15:59.828Z,81.50
2019-03-30T01:17:04.421Z,81.40
2019-03-30T01:18:15.404Z,81.40
2019-03-30T01:20:03.803Z,81.30
2019-03-30T01:20:45.730Z,81.10
2019-03-30T01:21:55.973Z,81.10
2019-03-30T01:22:58.614Z,80.90
2019-03-30T01:24:02.942Z,80.70
2019-03-30T01:25:09.674Z,80.80
2019-03-30T01:26:14.084Z,80.90
2019-03-30T01:27:22.906Z,80.80
2019-03-30T01:28:27.194Z,80.70
2019-03-30T01:29:36.847Z,80.80
2019-03-30T01:30:41.234Z,80.70
2019-03-30T01:31:45.305Z,80.70
2019-03-30T01:32:56.013Z,80.60
2019-03-30T01:34:00.839Z,80.50
2019-03-30T01:35:09.639Z,80.60
2019-03-30T01:36:16.712Z,80.40
2019-03-30T01:37:21.033Z,80.30
2019-03-30T01:38:25.236Z,80.20
2019-03-30T01:39:29.425Z,80.40
2019-03-30T01:40:36.253Z,80.40
2019-03-30T01:41:42.040Z,80.50
2019-03-30T01:42:46.268Z,80.40
2019-03-30T01:43:50.792Z,80.30
2019-03-30T01:44:56.560Z,80.40
2019-03-30T01:46:02.575Z,80.30
2019-03-30T01:47:06.951Z,80.20
2019-03-30T01:48:17.389Z,80.00
2019-03-30T01:49:23.339Z,79.90
2019-03-30T01:50:33.326Z,80.10
2019-03-30T01:51:38.310Z,80.00
2019-03-30T01:52:47.650Z,80.10
2019-03-30T01:53:53.319Z,80.20
2019-03-30T01:55:06.020Z,79.90
2019-03-30T01:56:10.328Z,80.10
2019-03-30T01:57:19.609Z,80.00
2019-03-30T01:58:25.346Z,79.90
2019-03-30T01:59:31.210Z,79.70
2019-03-30T02:00:40.028Z,79.90
2019-03-30T02:01:52.426Z,79.70
2019-03-30T02:02:51.832Z,79.70
2019-03-30T02:03:57.290Z,79.60
2019-03-30T02:05:06.177Z,79.70
2019-03-30T02:06:11.904Z,79.60
2019-03-30T02:07:19.290Z,79.70
2019-03-30T02:08:25.805Z,79.60
2019-03-30T02:09:31.592Z,79.70
2019-03-30T02:10:44.147Z,80.40
2019-03-30T02:11:49.620Z,79.80
2019-03-30T02:12:55.179Z,79.90
2019-03-30T02:14:03.747Z,79.70
2019-03-30T02:15:10.553Z,79.90
2019-03-30T02:16:25.165Z,79.70
2019-03-30T02:17:29.591Z,79.60
2019-03-30T02:18:33.905Z,79.60
2019-03-30T02:19:41.313Z,79.40
2019-03-30T02:20:47.329Z,79.50
2019-03-30T02:21:53.685Z,79.50
2019-03-30T02:22:57.977Z,79.40
2019-03-30T02:24:02.230Z,79.30
2019-03-30T02:25:12.545Z,79.40
2019-03-30T02:26:20.226Z,79.50
2019-03-30T02:27:26.180Z,79.60
2019-03-30T02:28:32.432Z,79.50
2019-03-30T02:29:38.584Z,79.70
2019-03-30T02:30:47.232Z,79.60
2019-03-30T02:31:57.023Z,79.60
2019-03-30T02:33:12.965Z,79.50
2019-03-30T02:34:19.082Z,79.60
2019-03-30T02:35:26.618Z,79.50
2019-03-30T02:36:32.725Z,79.50
2019-03-30T02:37:51.250Z,79.50
2019-03-30T02:38:50.590Z,79.60
2019-03-30T02:39:55.086Z,79.60
2019-03-30T02:41:01.005Z,79.50
2019-03-30T02:42:06.624Z,79.50
2019-03-30T02:43:13.901Z,79.60
2019-03-30T02:44:22.495Z,79.50
2019-03-30T02:45:27.948Z,79.60
2019-03-30T02:46:35.404Z,79.70
2019-03-30T02:47:39.608Z,79.70
2019-03-30T02:48:46.397Z,79.60
2019-03-30T02:49:53.676Z,79.70
2019-03-30T02:50:59.511Z,79.70
2019-03-30T02:52:06.113Z,79.70
2019-03-30T02:53:11.165Z,79.80
2019-03-30T02:54:16.733Z,79.90
2019-03-30T02:55:25.171Z,79.80
2019-03-30T02:56:31.318Z,79.70
2019-03-30T02:57:42.818Z,79.80
2019-03-30T02:59:12.726Z,79.70
2019-03-30T03:00:29.353Z,79.80
2019-03-30T03:01:40.088Z,79.70
2019-03-30T03:04:10.026Z,79.60
2019-03-30T03:04:21.088Z,79.60
2019-03-30T03:05:32.902Z,79.50
2019-03-30T03:06:35.989Z,79.70
2019-03-30T03:09:03.536Z,79.50
2019-03-30T03:10:52.609Z,79.50
2019-03-30T03:12:03.867Z,79.60
2019-03-30T03:14:40.022Z,79.60
2019-03-30T03:15:47.102Z,79.70
2019-03-30T03:16:52.660Z,79.70
2019-03-30T03:18:41.802Z,79.60
2019-03-30T03:19:32.274Z,79.60
2019-03-30T03:20:42.291Z,79.80
2019-03-30T03:22:05.374Z,79.80
2019-03-30T03:23:13.776Z,79.60
2019-03-30T03:24:25.396Z,79.50
2019-03-30T03:25:29.648Z,79.50
2019-03-30T03:26:35.809Z,79.40
2019-03-30T03:27:40.084Z,79.60
2019-03-30T03:28:47.074Z,79.60
2019-03-30T03:29:51.187Z,79.60
2019-03-30T03:31:00.289Z,79.50
2019-03-30T03:32:06.260Z,79.60
2019-03-30T03:33:14.030Z,80.30
2019-03-30T03:34:25.501Z,79.50
2019-03-30T03:35:39.024Z,79.40
2019-03-30T03:36:45.074Z,79.30
2019-03-30T03:37:50.969Z,79.50
2019-03-30T03:38:56.479Z,79.40
2019-03-30T03:40:06.427Z,79.30
2019-03-30T03:41:21.596Z,79.30
2019-03-30T03:42:34.718Z,79.40
2019-03-30T03:43:51.430Z,79.50
2019-03-30T03:44:59.132Z,79.50
2019-03-30T03:46:11.443Z,79.30
2019-03-30T03:47:21.936Z,79.40
2019-03-30T03:48:28.601Z,79.50
2019-03-30T03:49:41.000Z,79.60
2019-03-30T03:50:56.684Z,79.60
2019-03-30T03:52:05.134Z,79.60
2019-03-30T03:53:44.201Z,79.60
2019-03-30T03:54:35.325Z,79.50
2019-03-30T03:55:52.838Z,79.20
2019-03-30T03:56:55.698Z,79.20
2019-03-30T03:58:04.198Z,79.20
2019-03-30T03:59:11.903Z,79.30
2019-03-30T04:00:17.435Z,79.10
2019-03-30T04:01:25.180Z,79.00
2019-03-30T04:02:35.674Z,79.00
2019-03-30T04:03:49.580Z,79.20
2019-03-30T04:04:56.908Z,79.20
2019-03-30T04:06:04.201Z,79.30
2019-03-30T04:07:13.587Z,79.30
2019-03-30T04:08:21.750Z,79.30
2019-03-30T04:09:27.580Z,79.30
2019-03-30T04:11:55.566Z,79.20
2019-03-30T04:12:59.064Z,79.20
2019-03-30T04:14:14.969Z,79.10
2019-03-30T04:15:29.018Z,80.00
2019-03-30T04:16:35.572Z,79.30
2019-03-30T04:17:46.834Z,79.50
2019-03-30T04:19:00.565Z,79.30
2019-03-30T04:20:14.617Z,79.10
2019-03-30T04:21:42.905Z,79.10
2019-03-30T04:22:26.304Z,79.00
2019-03-30T04:24:00.702Z,79.00
2019-03-30T04:25:08.189Z,78.80
2019-03-30T04:26:16.269Z,78.90
2019-03-30T04:27:24.708Z,78.90
2019-03-30T04:28:34.546Z,78.90
2019-03-30T04:29:53.571Z,78.80
2019-03-30T04:30:48.516Z,78.70
2019-03-30T04:32:03.541Z,78.70
2019-03-30T04:33:10.197Z,78.60
2019-03-30T04:34:20.332Z,78.70
2019-03-30T04:35:24.142Z,78.60
2019-03-30T04:36:36.721Z,78.50
2019-03-30T04:37:44.983Z,78.50
2019-03-30T04:38:59.735Z,78.50
2019-03-30T04:40:11.731Z,78.80
2019-03-30T04:41:20.748Z,78.70
2019-03-30T04:42:28.743Z,78.50
2019-03-30T04:44:02.789Z,78.50
2019-03-30T04:45:31.311Z,78.20
2019-03-30T04:46:18.069Z,78.20
2019-03-30T04:47:21.453Z,78.10
2019-03-30T04:48:47.848Z,78.20
2019-03-30T04:49:58.279Z,78.10
2019-03-30T04:51:19.066Z,78.20
2019-03-30T04:52:28.895Z,78.30
2019-03-30T04:53:35.143Z,78.30
2019-03-30T04:55:09.095Z,78.40
2019-03-30T04:55:54.567Z,78.40
2019-03-30T04:57:11.884Z,78.40
2019-03-30T04:58:39.473Z,78.50
2019-03-30T04:59:55.025Z,78.40
2019-03-30T05:00:59.880Z,78.20
2019-03-30T05:03:19.234Z,78.20
2019-03-30T05:03:43.313Z,78.10
2019-03-30T05:05:08.084Z,78.10
2019-03-30T05:07:31.930Z,77.50
2019-03-30T05:08:30.781Z,77.60
2019-03-30T05:09:40.085Z,77.20
2019-03-30T05:10:52.389Z,77.10
2019-03-30T05:12:11.491Z,77.10
2019-03-30T05:13:19.025Z,77.10
2019-03-30T05:14:25.487Z,77.10
2019-03-30T05:15:32.610Z,77.90
2019-03-30T05:18:16.903Z,77.30
2019-03-30T05:19:22.352Z,78.00
2019-03-30T05:20:30.737Z,77.10
2019-03-30T05:21:40.772Z,77.10
2019-03-30T05:23:03.265Z,77.00
2019-03-30T05:24:10.876Z,76.80
2019-03-30T05:25:22.223Z,77.00
2019-03-30T05:26:30.883Z,76.50
2019-03-30T05:27:47.225Z,76.40
2019-03-30T05:28:51.693Z,76.50
2019-03-30T05:30:01.515Z,76.50
2019-03-30T05:31:08.532Z,76.60
2019-03-30T05:32:15.958Z,76.60
2019-03-30T05:33:23.034Z,76.50
2019-03-30T05:34:47.525Z,76.70
2019-03-30T05:35:44.584Z,76.60
2019-03-30T05:36:53.666Z,76.70
2019-03-30T05:38:09.041Z,76.60
2019-03-30T05:39:07.052Z,77.00
2019-03-30T05:40:14.227Z,76.40
2019-03-30T05:41:21.472Z,77.10
2019-03-30T05:42:30.335Z,76.00
2019-03-30T05:43:41.570Z,76.00
2019-03-30T05:44:52.807Z,75.80
2019-03-30T05:46:03.979Z,75.70
2019-03-30T05:47:11.153Z,75.50
2019-03-30T05:48:19.747Z,75.40
2019-03-30T05:50:38.625Z,75.40
2019-03-30T05:50:45.545Z,75.50
2019-03-30T05:51:56.337Z,75.70
2019-03-30T05:53:04.846Z,75.50
2019-03-30T05:54:17.445Z,75.10
2019-03-30T05:55:20.964Z,75.00
2019-03-30T05:56:27.916Z,75.10
2019-03-30T05:57:44.803Z,75.10
2019-03-30T06:00:17.491Z,75.20
2019-03-30T06:01:24.131Z,75.20
2019-03-30T06:02:32.049Z,75.20
2019-03-30T06:03:43.177Z,75.20
2019-03-30T06:04:46.563Z,75.40
2019-03-30T06:05:55.538Z,75.30
2019-03-30T06:07:04.439Z,75.30
2019-03-30T06:08:10.401Z,75.40
2019-03-30T06:09:17.581Z,75.20
2019-03-30T06:11:43.768Z,74.70
2019-03-30T06:12:48.612Z,74.50
2019-03-30T06:14:20.672Z,74.20
2019-03-30T06:15:18.344Z,74.30
2019-03-30T06:16:22.809Z,74.20
2019-03-30T06:17:32.389Z,74.00
2019-03-30T06:18:42.124Z,73.80
2019-03-30T06:19:49.769Z,74.00
2019-03-30T06:20:56.956Z,74.00
2019-03-30T06:22:39.298Z,73.80
2019-03-30T06:23:19.203Z,73.80
2019-03-30T06:24:32.712Z,74.00
2019-03-30T06:25:38.545Z,74.10
2019-03-30T06:26:49.414Z,74.30
2019-03-30T06:27:53.663Z,74.50
2019-03-30T06:29:09.088Z,74.40
2019-03-30T06:30:26.303Z,74.40
2019-03-30T06:31:34.518Z,74.10
2019-03-30T06:33:08.138Z,74.70
2019-03-30T06:34:17.051Z,73.70
2019-03-30T06:35:26.455Z,73.70
2019-03-30T06:36:32.388Z,73.70
2019-03-30T06:37:38.351Z,73.70
2019-03-30T06:38:47.244Z,73.80
2019-03-30T06:39:53.002Z,73.30
2019-03-30T06:40:59.951Z,73.10
2019-03-30T06:42:07.111Z,73.10
2019-03-30T06:43:12.854Z,73.00
2019-03-30T06:44:20.968Z,72.90
2019-03-30T06:45:26.308Z,72.60
2019-03-30T06:46:32.246Z,72.50
2019-03-30T06:47:47.414Z,72.10
2019-03-30T06:48:57.233Z,71.90
2019-03-30T06:50:02.180Z,72.00
2019-03-30T06:51:09.242Z,72.30
2019-03-30T06:52:18.460Z,71.60
2019-03-30T06:53:33.413Z,71.20
2019-03-30T06:54:37.168Z,71.30
2019-03-30T06:55:44.538Z,71.40
2019-03-30T06:56:52.487Z,71.10
2019-03-30T06:58:03.156Z,71.20
2019-03-30T06:59:17.778Z,71.50
2019-03-30T07:00:30.970Z,71.20
2019-03-30T07:01:51.386Z,70.80
2019-03-30T07:02:43.520Z,70.60
2019-03-30T07:03:52.129Z,70.50
2019-03-30T07:04:56.663Z,70.90
2019-03-30T07:06:03.040Z,70.90
2019-03-30T07:07:14.317Z,71.00
2019-03-30T07:08:20.055Z,71.00
2019-03-30T07:09:27.269Z,71.20
2019-03-30T07:10:38.308Z,71.30
2019-03-30T07:12:01.595Z,70.90
2019-03-30T07:13:07.552Z,70.90
2019-03-30T07:14:14.002Z,70.90
2019-03-30T07:15:19.971Z,70.30
2019-03-30T07:16:30.437Z,70.30
2019-03-30T07:17:39.409Z,70.40
2019-03-30T07:18:56.266Z,70.40
2019-03-30T07:20:02.326Z,70.30
2019-03-30T07:21:15.898Z,69.90
2019-03-30T07:22:16.592Z,69.20
2019-03-30T07:23:21.993Z,69.10
2019-03-30T07:24:26.055Z,68.80
2019-03-30T07:25:30.206Z,68.50
2019-03-30T07:27:16.190Z,68.60
2019-03-30T07:28:20.677Z,68.60
2019-03-30T07:29:37.548Z,68.40
2019-03-30T07:30:41.234Z,68.10
2019-03-30T07:31:48.424Z,68.50
2019-03-30T07:32:53.116Z,68.70
2019-03-30T07:33:57.256Z,68.60
2019-03-30T07:35:01.537Z,68.40
2019-03-30T07:36:10.245Z,68.60
2019-03-30T07:37:25.156Z,67.70
2019-03-30T07:38:32.196Z,67.80
2019-03-30T07:39:36.533Z,67.90
2019-03-30T07:40:40.868Z,67.80
2019-03-30T07:41:51.704Z,67.90
2019-03-30T07:43:01.546Z,67.80
2019-03-30T07:44:11.014Z,67.70
2019-03-30T07:45:24.027Z,67.70
2019-03-30T07:46:30.112Z,67.90
2019-03-30T07:47:34.220Z,67.70
2019-03-30T07:48:40.158Z,67.70
2019-03-30T07:49:49.786Z,67.70
2019-03-30T07:50:53.163Z,67.70
2019-03-30T07:52:00.090Z,67.60
2019-03-30T07:53:09.047Z,67.50
2019-03-30T07:54:13.254Z,67.80
2019-03-30T07:55:18.709Z,67.90
2019-03-30T07:56:22.998Z,68.00
2019-03-30T07:57:27.301Z,68.70
2019-03-30T07:58:37.039Z,68.10
2019-03-30T08:00:00.000Z,67.50
2019-03-30T08:01:15.920Z,67.50
2019-03-30T08:02:24.754Z,67.50
2019-03-30T08:03:28.996Z,67.60
2019-03-30T08:04:34.830Z,67.90
2019-03-30T08:05:43.164Z,68.10
2019-03-30T08:06:48.299Z,68.30
2019-03-30T08:07:52.596Z,68.60
2019-03-30T08:08:58.035Z,68.40
2019-03-30T08:10:02.422Z,67.70
2019-03-30T08:11:09.880Z,67.60
2019-03-30T08:12:15.559Z,67.20
2019-03-30T08:13:31.444Z,67.00
2019-03-30T08:14:34.683Z,66.80
2019-03-30T08:15:40.290Z,66.70
2019-03-30T08:17:06.272Z,66.70
2019-03-30T08:18:44.901Z,66.40
2019-03-30T08:19:55.066Z,67.10
2019-03-30T08:20:54.032Z,66.10
2019-03-30T08:22:02.613Z,65.90
2019-03-30T08:23:42.368Z,66.20
2019-03-30T08:24:22.654Z,66.00
2019-03-30T08:25:25.387Z,66.30
2019-03-30T08:26:35.486Z,66.20
2019-03-30T08:27:44.271Z,65.50
2019-03-30T08:29:19.612Z,65.40
2019-03-30T08:31:17.108Z,65.80
2019-03-30T08:32:29.080Z,65.30
2019-03-30T08:33:35.892Z,64.90
2019-03-30T08:34:41.981Z,64.10
2019-03-30T08:35:56.498Z,63.80
2019-03-30T08:37:02.813Z,64.20
2019-03-30T08:38:13.696Z,64.30
2019-03-30T08:39:17.812Z,64.30
2019-03-30T08:40:21.905Z,64.20
2019-03-30T08:41:26.107Z,64.10
2019-03-30T08:42:30.359Z,64.00
2019-03-30T08:43:47.894Z,64.30
2019-03-30T08:45:03.155Z,64.40
2019-03-30T08:46:00.409Z,64.40
2019-03-30T08:47:06.076Z,64.40
2019-03-30T08:48:21.048Z,64.30
2019-03-30T08:49:26.642Z,64.10
2019-03-30T08:50:34.675Z,64.00
2019-03-30T08:51:43.690Z,63.60
2019-03-30T08:53:01.720Z,62.60
2019-03-30T08:54:13.333Z,62.70
2019-03-30T08:55:17.833Z,62.90
2019-03-30T08:56:28.181Z,63.10
2019-03-30T08:57:34.476Z,62.80
2019-03-30T08:58:38.714Z,62.10
2019-03-30T08:59:42.930Z,62.00
2019-03-30T09:00:47.302Z,62.10
2019-03-30T09:01:53.065Z,61.90
2019-03-30T09:02:58.265Z,61.70
2019-03-30T09:04:13.226Z,61.80
2019-03-30T09:05:24.582Z,61.50
2019-03-30T09:06:28.944Z,61.70
2019-03-30T09:07:50.668Z,61.80
2019-03-30T09:08:52.290Z,62.00
2019-03-30T09:10:01.016Z,62.20
2019-03-30T09:11:11.867Z,62.20
2019-03-30T09:12:26.034Z,62.20
2019-03-30T09:13:30.435Z,61.80
2019-03-30T09:14:49.160Z,61.50
2019-03-30T09:16:05.324Z,61.10
2019-03-30T09:17:07.626Z,59.60
2019-03-30T09:18:31.173Z,59.60
2019-03-30T09:19:40.945Z,59.60
2019-03-30T09:20:37.240Z,59.70
2019-03-30T09:21:52.491Z,59.60
2019-03-30T09:23:08.891Z,59.60
2019-03-30T09:25:45.507Z,60.00
2019-03-30T09:27:05.937Z,60.00
2019-03-30T09:28:09.930Z,60.10
2019-03-30T09:30:38.864Z,58.90
2019-03-30T09:33:09.446Z,59.20
2019-03-30T09:33:30.854Z,59.90
2019-03-30T09:34:14.323Z,58.80
2019-03-30T09:35:43.517Z,58.80
2019-03-30T09:36:50.659Z,58.10
2019-03-30T09:38:09.092Z,58.00
2019-03-30T09:39:17.611Z,58.00
2019-03-30T09:40:28.393Z,57.90
2019-03-30T09:41:36.850Z,58.20
2019-03-30T09:44:09.579Z,58.20
2019-03-30T09:45:19.460Z,57.60
2019-03-30T09:46:44.247Z,57.50
2019-03-30T09:47:50.533Z,57.60
2019-03-30T09:49:06.190Z,57.80
2019-03-30T09:50:15.306Z,58.00
2019-03-30T09:51:31.692Z,57.90
2019-03-30T09:54:04.734Z,58.00
2019-03-30T09:55:13.531Z,57.80
2019-03-30T09:56:27.955Z,57.70
2019-03-30T09:57:41.532Z,57.90
2019-03-30T09:58:59.153Z,57.40
2019-03-30T10:00:19.947Z,57.20
2019-03-30T10:01:32.543Z,57.30
2019-03-30T10:02:26.053Z,57.20
2019-03-30T10:03:39.609Z,57.30
2019-03-30T10:04:50.984Z,56.90
2019-03-30T10:05:59.593Z,57.00
2019-03-30T10:08:03.989Z,57.40
2019-03-30T10:08:24.606Z,57.60
2019-03-30T10:09:35.552Z,57.40
2019-03-30T10:10:51.345Z,57.40
2019-03-30T10:12:08.723Z,57.40
2019-03-30T10:13:21.616Z,57.30
2019-03-30T10:14:28.945Z,57.10
2019-03-30T10:15:49.858Z,57.10
2019-03-30T10:16:56.142Z,56.40
2019-03-30T10:18:28.872Z,56.40
2019-03-30T10:19:20.447Z,56.50
2019-03-30T10:21:39.543Z,56.70
2019-03-30T10:22:50.470Z,56.90
2019-03-30T10:23:59.061Z,56.80
2019-03-30T10:26:05.320Z,56.50
2019-03-30T10:26:24.204Z,56.50
2019-03-30T10:28:06.104Z,56.50
2019-03-30T10:28:42.565Z,55.80
2019-03-30T10:30:02.070Z,55.90
2019-03-30T10:30:54.351Z,55.20
2019-03-30T10:32:23.200Z,54.60
2019-03-30T10:34:50.343Z,54.40
2019-03-30T10:40:16.231Z,54.60
2019-03-30T10:41:21.742Z,54.40
2019-03-30T10:42:31.600Z,54.40
2019-03-30T10:45:10.676Z,54.40
2019-03-30T10:46:20.823Z,54.60
2019-03-30T10:47:38.860Z,55.00
2019-03-30T10:48:45.348Z,54.10
2019-03-30T10:49:52.905Z,54.00
2019-03-30T10:51:07.086Z,54.00
2019-03-30T10:53:17.946Z,53.90
2019-03-30T10:53:27.264Z,53.80
2019-03-30T10:54:32.096Z,54.20
2019-03-30T10:57:21.558Z,54.70
2019-03-30T10:58:25.005Z,54.70
2019-03-30T11:00:44.281Z,54.90
2019-03-30T11:02:51.339Z,54.90
2019-03-30T11:03:15.955Z,55.10
2019-03-30T11:04:26.151Z,55.30
2019-03-30T11:05:50.034Z,55.40
2019-03-30T11:07:06.848Z,55.30
2019-03-30T11:08:23.807Z,55.30
2019-03-30T11:09:30.964Z,55.40
2019-03-30T11:10:36.698Z,55.30
2019-03-30T11:11:49.169Z,55.40
2019-03-30T11:13:15.651Z,55.40
2019-03-30T11:14:36.627Z,55.30
2019-03-30T11:15:22.624Z,55.30
2019-03-30T11:16:27.418Z,55.00
2019-03-30T11:17:37.153Z,55.40
2019-03-30T11:18:47.956Z,55.40
2019-03-30T11:19:55.813Z,55.00
2019-03-30T11:21:17.233Z,55.30
2019-03-30T11:22:24.423Z,55.60
2019-03-30T11:23:38.883Z,55.40
2019-03-30T11:24:48.611Z,54.80
2019-03-30T11:27:24.937Z,55.00
2019-03-30T11:28:46.652Z,54.90
2019-03-30T11:29:56.935Z,54.90
2019-03-30T11:33:02.169Z,54.80
2019-03-30T11:34:18.140Z,54.50
2019-03-30T11:36:55.512Z,54.60
2019-03-30T11:38:05.317Z,54.90
2019-03-30T11:39:19.039Z,55.20
2019-03-30T11:41:30.687Z,55.00
2019-03-30T11:42:08.795Z,54.40
2019-03-30T11:45:19.617Z,55.00
2019-03-30T11:45:30.907Z,55.10
2019-03-30T11:46:48.400Z,55.50
2019-03-30T11:48:12.314Z,55.40
2019-03-30T11:49:24.776Z,55.30
2019-03-30T11:53:23.872Z,55.30
2019-03-30T11:54:32.640Z,55.60
2019-03-30T11:55:38.540Z,55.90
2019-03-30T11:56:55.895Z,56.30
2019-03-30T11:58:54.036Z,56.60
2019-03-30T11:59:19.394Z,56.70
2019-03-30T12:00:30.726Z,56.30
2019-03-30T12:01:44.051Z,56.60
2019-03-30T12:04:45.799Z,56.70
2019-03-30T12:05:50.593Z,57.40
2019-03-30T12:07:07.792Z,56.50
2019-03-30T12:08:46.145Z,56.50
2019-03-30T12:15:11.685Z,57.60
2019-03-30T12:16:24.678Z,57.60
2019-03-30T12:17:46.164Z,57.80
2019-03-30T12:20:54.119Z,57.70
2019-03-30T12:22:13.996Z,57.60
2019-03-30T12:23:30.677Z,57.30
2019-03-30T12:24:39.247Z,57.50
2019-03-30T12:28:44.029Z,57.40
2019-03-30T12:29:58.462Z,57.60
2019-03-30T12:31:23.458Z,57.70
2019-03-30T12:32:47.325Z,57.90
2019-03-30T12:34:25.593Z,58.10
2019-03-30T12:35:26.726Z,57.90
2019-03-30T12:36:55.641Z,57.70
2019-03-30T12:43:02.554Z,57.40
2019-03-30T12:44:10.928Z,56.90
2019-03-30T12:48:14.999Z,57.10
2019-03-30T12:50:08.568Z,57.20
2019-03-30T12:54:47.378Z,57.30
2019-03-30T12:56:19.153Z,57.30
2019-03-30T12:57:35.095Z,57.40
2019-03-30T13:00:17.827Z,57.20
2019-03-30T13:02:58.358Z,56.90
2019-03-30T13:04:22.111Z,57.00
2019-03-30T13:05:26.239Z,57.20
2019-03-30T13:06:30.691Z,57.40
2019-03-30T13:07:38.270Z,57.40
2019-03-30T13:08:44.128Z,57.40
2019-03-30T13:10:35.406Z,57.30
2019-03-30T13:16:16.409Z,57.30
2019-03-30T13:20:56.902Z,55.50
2019-03-30T13:22:16.377Z,55.60
2019-03-30T13:23:06.784Z,55.60
2019-03-30T13:24:12.562Z,55.40
2019-03-30T13:25:28.668Z,55.40
2019-03-30T13:26:32.728Z,55.70
2019-03-30T13:27:41.894Z,55.80
2019-03-30T13:28:57.219Z,56.70
2019-03-30T13:30:05.316Z,55.80
2019-03-30T13:31:15.055Z,55.90
2019-03-30T13:32:32.276Z,56.30
2019-03-30T13:35:17.561Z,55.80
2019-03-30T13:36:51.985Z,55.90
2019-03-30T13:41:45.050Z,54.80
2019-03-30T13:43:02.469Z,55.00
2019-03-30T13:44:03.961Z,55.20
2019-03-30T13:45:12.230Z,55.50
2019-03-30T13:46:19.992Z,55.60
2019-03-30T13:48:57.437Z,54.80
2019-03-30T13:50:14.281Z,54.90
2019-03-30T13:51:26.181Z,55.00
2019-03-30T13:52:37.740Z,55.20
2019-03-30T13:53:56.601Z,55.30
2019-03-30T13:54:58.655Z,55.00
2019-03-30T13:56:17.473Z,54.70
2019-03-30T13:57:23.246Z,54.00
2019-03-30T13:58:40.085Z,54.20
2019-03-30T13:59:43.387Z,54.40
2019-03-30T14:01:02.628Z,54.90
2019-03-30T14:02:03.528Z,54.60
2019-03-30T14:03:16.233Z,54.70
2019-03-30T14:04:39.373Z,54.60
2019-03-30T14:07:18.707Z,53.60
2019-03-30T14:08:31.815Z,53.60
2019-03-30T14:09:35.426Z,53.80
2019-03-30T14:10:50.260Z,53.90
2019-03-30T14:12:58.622Z,54.00
2019-03-30T14:13:10.135Z,54.20
2019-03-30T14:14:19.004Z,54.30
2019-03-30T14:15:35.334Z,54.30
2019-03-30T14:18:13.274Z,54.20
2019-03-30T14:22:46.402Z,53.80
2019-03-30T14:25:38.791Z,53.00
2019-03-30T14:26:56.408Z,52.90
2019-03-30T14:28:16.508Z,52.70
2019-03-30T14:29:29.653Z,53.00
2019-03-30T14:30:53.334Z,53.00
2019-03-30T14:32:49.249Z,53.20
2019-03-30T14:33:10.325Z,53.40
2019-03-30T14:34:23.973Z,53.80
2019-03-30T14:35:34.214Z,53.70
2019-03-30T14:37:07.206Z,53.70
2019-03-30T14:37:57.919Z,53.70
2019-03-30T14:39:04.760Z,53.30
2019-03-30T14:40:24.578Z,53.20
2019-03-30T14:41:21.545Z,53.00
2019-03-30T14:42:28.534Z,52.90
2019-03-30T14:43:38.918Z,53.00
2019-03-30T14:44:49.999Z,53.10
2019-03-30T14:45:57.192Z,53.20
2019-03-30T14:47:08.792Z,53.00
2019-03-30T14:48:30.573Z,53.20
2019-03-30T14:49:38.749Z,53.10
2019-03-30T14:50:47.438Z,53.10
2019-03-30T14:52:12.687Z,53.30
2019-03-30T14:53:20.161Z,53.20
2019-03-30T14:54:19.453Z,53.40
2019-03-30T14:55:30.514Z,53.10
2019-03-30T14:56:46.261Z,53.00
2019-03-30T14:58:00.850Z,53.00
2019-03-30T14:59:14.555Z,53.00
2019-03-30T15:00:23.054Z,52.70
2019-03-30T15:01:32.826Z,52.30
2019-03-30T15:02:45.646Z,52.40
2019-03-30T15:04:01.999Z,52.70
2019-03-30T15:05:15.355Z,52.80
2019-03-30T15:06:22.250Z,52.90
2019-03-30T15:07:28.173Z,52.80
2019-03-30T15:08:35.650Z,52.80
2019-03-30T15:09:42.909Z,52.90
2019-03-30T15:10:52.091Z,53.00
2019-03-30T15:12:53.118Z,53.10
2019-03-30T15:13:17.097Z,53.00
2019-03-30T15:14:25.762Z,52.80
2019-03-30T15:17:02.704Z,52.50
2019-03-30T15:18:10.676Z,52.50
2019-03-30T15:19:21.453Z,52.60
2019-03-30T15:20:50.481Z,52.60
2019-03-30T15:21:57.614Z,52.60
2019-03-30T15:23:09.880Z,52.30
2019-03-30T15:24:25.043Z,51.90
2019-03-30T15:27:49.005Z,52.10
2019-03-30T15:29:46.380Z,51.80
2019-03-30T15:30:27.626Z,51.60
2019-03-30T15:31:04.985Z,51.90
2019-03-30T15:32:28.362Z,51.60
2019-03-30T15:33:44.268Z,51.90
2019-03-30T15:34:58.213Z,51.00
2019-03-30T15:36:07.145Z,50.90
2019-03-30T15:37:32.892Z,50.90
2019-03-30T15:42:39.860Z,49.60
2019-03-30T15:47:56.091Z,48.70
2019-03-30T15:49:43.563Z,48.10
2019-03-30T15:52:16.783Z,48.40
2019-03-30T15:53:21.565Z,48.50
2019-03-30T15:55:58.734Z,48.90
2019-03-30T16:00:00.140Z,49.30
2019-03-30T16:00:29.326Z,49.60
2019-03-30T16:01:32.530Z,49.90
2019-03-30T16:03:10.269Z,50.10
2019-03-30T16:04:15.808Z,50.00
2019-03-30T16:05:34.505Z,50.20
2019-03-30T16:08:16.969Z,50.90
2019-03-30T16:09:23.638Z,51.20
2019-03-30T16:11:55.637Z,51.60
2019-03-30T16:13:16.572Z,51.90
2019-03-30T16:14:39.304Z,52.10
2019-03-30T16:15:46.791Z,52.30
2019-03-30T16:16:48.025Z,52.60
2019-03-30T16:17:57.065Z,52.80
2019-03-30T16:19:04.112Z,53.00
2019-03-30T16:20:18.903Z,53.00
2019-03-30T16:21:31.405Z,53.20
2019-03-30T16:22:46.536Z,53.50
2019-03-30T16:23:50.333Z,53.80
2019-03-30T16:24:59.858Z,54.00
2019-03-30T16:26:06.633Z,54.10
2019-03-30T16:27:27.790Z,54.20
2019-03-30T16:28:21.829Z,54.50
2019-03-30T16:29:30.157Z,54.80
2019-03-30T16:30:42.880Z,55.00
2019-03-30T16:31:49.438Z,55.20
2019-03-30T16:33:10.644Z,55.40
2019-03-30T16:34:43.639Z,55.40
2019-03-30T16:35:46.120Z,55.70
2019-03-30T16:36:59.971Z,56.00
2019-03-30T16:38:11.624Z,56.10
2019-03-30T16:39:35.789Z,56.40
2019-03-30T16:40:42.470Z,56.40
2019-03-30T16:43:25.970Z,56.80
2019-03-30T16:51:49.951Z,58.00
2019-03-30T16:52:58.958Z,58.20
2019-03-30T16:55:36.507Z,58.60
2019-03-30T16:58:13.172Z,58.80
2019-03-30T16:59:22.710Z,59.10
2019-03-30T17:00:30.133Z,59.10
2019-03-30T17:01:40.186Z,59.20
2019-03-30T17:02:53.225Z,59.30
2019-03-30T17:04:20.190Z,59.50